sensor_id;sensor_type;location;lat;lon;timestamp;P1;durP1;ratioP1;P2;durP2;ratioP2
34453;SDS011;60061;52.080;5.312;2022-12-13T00:01:17;34.81;;;15.5;;
34453;SDS011;60061;52.080;5.312;2022-12-13T00:02:54;31.0;;;15.8;;
34453;SDS011;60061;52.080;5.312;2022-12-13T00:06:07;33.6;;;15.2;;
34453;SDS011;60061;52.080;5.312;2022-12-13T00:07:44;29.2;;;14.8;;
34453;SDS011;60061;52.080;5.312;2022-12-13T00:09:21;31.3;;;15.6;;
34453;SDS011;60061;52.080;5.312;2022-12-13T00:10:58;32.21;;;14.7;;
34453;SDS011;60061;52.080;5.312;2022-12-13T00:14:12;25.8;;;14.2;;
34453;SDS011;60061;52.080;5.312;2022-12-13T00:15:54;32.9;;;15.1;;
34453;SDS011;60061;52.080;5.312;2022-12-13T00:17:31;30.0;;;15.0;;
34453;SDS011;60061;52.080;5.312;2022-12-13T00:20:43;31.1;;;15.0;;
34453;SDS011;60061;52.080;5.312;2022-12-13T00:22:19;32.4;;;14.9;;
34453;SDS011;60061;52.080;5.312;2022-12-13T00:23:56;32.1;;;14.8;;
34453;SDS011;60061;52.080;5.312;2022-12-13T00:25:34;29.9;;;14.2;;
34453;SDS011;60061;52.080;5.312;2022-12-13T00:28:48;31.1;;;14.9;;
34453;SDS011;60061;52.080;5.312;2022-12-13T00:30:30;30.1;;;14.8;;
34453;SDS011;60061;52.080;5.312;2022-12-13T00:32:06;28.8;;;14.6;;
34453;SDS011;60061;52.080;5.312;2022-12-13T00:35:20;37.0;;;15.7;;
34453;SDS011;60061;52.080;5.312;2022-12-13T00:36:57;30.7;;;15.2;;
34453;SDS011;60061;52.080;5.312;2022-12-13T00:38:35;33.9;;;15.6;;
34453;SDS011;60061;52.080;5.312;2022-12-13T00:40:13;34.6;;;16.7;;
34453;SDS011;60061;52.080;5.312;2022-12-13T00:43:26;31.4;;;15.6;;
34453;SDS011;60061;52.080;5.312;2022-12-13T00:45:03;31.8;;;15.7;;
34453;SDS011;60061;52.080;5.312;2022-12-13T00:46:41;34.5;;;15.8;;
34453;SDS011;60061;52.080;5.312;2022-12-13T00:49:54;34.9;;;15.7;;
34453;SDS011;60061;52.080;5.312;2022-12-13T00:51:31;34.0;;;16.0;;
34453;SDS011;60061;52.080;5.312;2022-12-13T00:53:09;32.4;;;15.3;;
34453;SDS011;60061;52.080;5.312;2022-12-13T00:56:22;33.0;;;15.7;;
34453;SDS011;60061;52.080;5.312;2022-12-13T00:58:04;33.3;;;16.11;;
34453;SDS011;60061;52.080;5.312;2022-12-13T01:06:10;31.9;;;14.9;;
34453;SDS011;60061;52.080;5.312;2022-12-13T01:07:47;35.31;;;15.8;;
34453;SDS011;60061;52.080;5.312;2022-12-13T01:11:03;35.31;;;15.7;;
34453;SDS011;60061;52.080;5.312;2022-12-13T01:12:42;31.6;;;15.5;;
34453;SDS011;60061;52.080;5.312;2022-12-13T01:14:18;28.6;;;14.7;;
34453;SDS011;60061;52.080;5.312;2022-12-13T01:15:54;33.4;;;15.2;;
34453;SDS011;60061;52.080;5.312;2022-12-13T01:19:09;29.6;;;15.3;;
34453;SDS011;60061;52.080;5.312;2022-12-13T01:20:55;32.5;;;15.1;;
34453;SDS011;60061;52.080;5.312;2022-12-13T01:22:32;32.5;;;15.1;;
34453;SDS011;60061;52.080;5.312;2022-12-13T01:24:08;35.1;;;16.3;;
34453;SDS011;60061;52.080;5.312;2022-12-13T01:27:22;32.3;;;16.5;;
34453;SDS011;60061;52.080;5.312;2022-12-13T01:28:58;32.71;;;15.6;;
34453;SDS011;60061;52.080;5.312;2022-12-13T01:30:34;34.4;;;16.11;;
34453;SDS011;60061;52.080;5.312;2022-12-13T01:33:48;32.3;;;16.11;;
34453;SDS011;60061;52.080;5.312;2022-12-13T01:35:25;32.6;;;16.5;;
34453;SDS011;60061;52.080;5.312;2022-12-13T01:37:01;33.4;;;15.5;;
34453;SDS011;60061;52.080;5.312;2022-12-13T01:40:13;31.9;;;15.8;;
34453;SDS011;60061;52.080;5.312;2022-12-13T01:41:50;36.9;;;16.61;;
34453;SDS011;60061;52.080;5.312;2022-12-13T01:43:48;37.5;;;16.8;;
34453;SDS011;60061;52.080;5.312;2022-12-13T01:45:31;36.71;;;16.2;;
34453;SDS011;60061;52.080;5.312;2022-12-13T01:47:08;36.0;;;16.7;;
34453;SDS011;60061;52.080;5.312;2022-12-13T01:50:29;36.71;;;16.7;;
34453;SDS011;60061;52.080;5.312;2022-12-13T01:52:10;32.71;;;16.2;;
34453;SDS011;60061;52.080;5.312;2022-12-13T01:53:49;32.9;;;15.7;;
34453;SDS011;60061;52.080;5.312;2022-12-13T01:57:07;36.21;;;17.3;;
34453;SDS011;60061;52.080;5.312;2022-12-13T01:58:48;35.6;;;16.11;;
34453;SDS011;60061;52.080;5.312;2022-12-13T02:00:29;34.6;;;15.9;;
34453;SDS011;60061;52.080;5.312;2022-12-13T02:02:09;34.6;;;15.8;;
34453;SDS011;60061;52.080;5.312;2022-12-13T02:05:25;35.9;;;16.3;;
34453;SDS011;60061;52.080;5.312;2022-12-13T02:07:07;33.3;;;16.0;;
34453;SDS011;60061;52.080;5.312;2022-12-13T02:08:44;34.31;;;16.0;;
34453;SDS011;60061;52.080;5.312;2022-12-13T02:10:21;32.3;;;15.7;;
34453;SDS011;60061;52.080;5.312;2022-12-13T02:13:36;32.9;;;15.6;;
34453;SDS011;60061;52.080;5.312;2022-12-13T02:15:14;34.81;;;15.3;;
34453;SDS011;60061;52.080;5.312;2022-12-13T02:16:54;30.0;;;14.7;;
34453;SDS011;60061;52.080;5.312;2022-12-13T02:18:43;30.8;;;15.2;;
34453;SDS011;60061;52.080;5.312;2022-12-13T02:23:44;34.81;;;16.7;;
34453;SDS011;60061;52.080;5.312;2022-12-13T02:26:45;32.0;;;15.7;;
34453;SDS011;60061;52.080;5.312;2022-12-13T02:28:41;32.8;;;16.9;;
34453;SDS011;60061;52.080;5.312;2022-12-13T02:30:36;33.0;;;15.2;;
34453;SDS011;60061;52.080;5.312;2022-12-13T02:32:18;32.0;;;15.5;;
34453;SDS011;60061;52.080;5.312;2022-12-13T02:34:04;31.1;;;15.6;;
34453;SDS011;60061;52.080;5.312;2022-12-13T02:35:45;31.6;;;15.3;;
34453;SDS011;60061;52.080;5.312;2022-12-13T02:37:31;35.1;;;16.5;;
34453;SDS011;60061;52.080;5.312;2022-12-13T02:40:59;35.21;;;16.5;;
34453;SDS011;60061;52.080;5.312;2022-12-13T02:44:33;37.0;;;17.0;;
34453;SDS011;60061;52.080;5.312;2022-12-13T02:46:15;33.9;;;15.9;;
34453;SDS011;60061;52.080;5.312;2022-12-13T02:47:55;35.5;;;16.0;;
34453;SDS011;60061;52.080;5.312;2022-12-13T02:51:17;34.9;;;16.7;;
34453;SDS011;60061;52.080;5.312;2022-12-13T02:52:55;33.6;;;16.2;;
34453;SDS011;60061;52.080;5.312;2022-12-13T02:54:33;39.4;;;15.9;;
34453;SDS011;60061;52.080;5.312;2022-12-13T02:57:48;37.0;;;16.3;;
34453;SDS011;60061;52.080;5.312;2022-12-13T02:59:25;36.9;;;16.8;;
34453;SDS011;60061;52.080;5.312;2022-12-13T03:01:11;37.9;;;16.61;;
34453;SDS011;60061;52.080;5.312;2022-12-13T03:03:25;35.5;;;16.3;;
34453;SDS011;60061;52.080;5.312;2022-12-13T03:06:32;32.71;;;16.0;;
34453;SDS011;60061;52.080;5.312;2022-12-13T03:08:21;36.1;;;16.4;;
34453;SDS011;60061;52.080;5.312;2022-12-13T03:10:02;34.81;;;16.2;;
34453;SDS011;60061;52.080;5.312;2022-12-13T03:14:07;38.31;;;17.3;;
34453;SDS011;60061;52.080;5.312;2022-12-13T03:15:49;33.9;;;15.9;;
34453;SDS011;60061;52.080;5.312;2022-12-13T03:17:34;30.5;;;15.3;;
34453;SDS011;60061;52.080;5.312;2022-12-13T03:19:17;32.3;;;16.0;;
34453;SDS011;60061;52.080;5.312;2022-12-13T03:22:35;32.1;;;15.0;;
34453;SDS011;60061;52.080;5.312;2022-12-13T03:24:11;36.81;;;15.5;;
34453;SDS011;60061;52.080;5.312;2022-12-13T03:25:49;36.21;;;16.2;;
34453;SDS011;60061;52.080;5.312;2022-12-13T03:29:08;32.8;;;15.7;;
34453;SDS011;60061;52.080;5.312;2022-12-13T03:30:44;32.8;;;15.7;;
34453;SDS011;60061;52.080;5.312;2022-12-13T03:32:20;31.7;;;15.6;;
34453;SDS011;60061;52.080;5.312;2022-12-13T03:33:56;30.8;;;15.3;;
34453;SDS011;60061;52.080;5.312;2022-12-13T03:37:11;30.1;;;15.0;;
34453;SDS011;60061;52.080;5.312;2022-12-13T03:38:47;35.1;;;15.7;;
34453;SDS011;60061;52.080;5.312;2022-12-13T03:40:26;35.5;;;15.9;;
34453;SDS011;60061;52.080;5.312;2022-12-13T03:43:40;32.6;;;15.5;;
34453;SDS011;60061;52.080;5.312;2022-12-13T03:45:19;32.3;;;15.9;;
34453;SDS011;60061;52.080;5.312;2022-12-13T03:46:56;33.0;;;16.3;;
34453;SDS011;60061;52.080;5.312;2022-12-13T03:48:32;33.0;;;15.4;;
34453;SDS011;60061;52.080;5.312;2022-12-13T03:51:44;33.71;;;16.4;;
34453;SDS011;60061;52.080;5.312;2022-12-13T03:53:21;34.5;;;16.11;;
34453;SDS011;60061;52.080;5.312;2022-12-13T03:54:59;34.81;;;15.4;;
34453;SDS011;60061;52.080;5.312;2022-12-13T03:58:13;31.6;;;15.4;;
34453;SDS011;60061;52.080;5.312;2022-12-13T03:59:49;32.8;;;14.9;;
34453;SDS011;60061;52.080;5.312;2022-12-13T04:01:26;34.0;;;15.4;;
34453;SDS011;60061;52.080;5.312;2022-12-13T04:04:39;33.71;;;16.0;;
34453;SDS011;60061;52.080;5.312;2022-12-13T04:06:15;32.3;;;15.0;;
34453;SDS011;60061;52.080;5.312;2022-12-13T04:07:52;35.1;;;15.7;;
34453;SDS011;60061;52.080;5.312;2022-12-13T04:09:29;29.9;;;15.2;;
34453;SDS011;60061;52.080;5.312;2022-12-13T04:15:08;31.9;;;16.2;;
34453;SDS011;60061;52.080;5.312;2022-12-13T04:16:44;37.4;;;16.4;;
34453;SDS011;60061;52.080;5.312;2022-12-13T04:18:20;31.0;;;16.0;;
34453;SDS011;60061;52.080;5.312;2022-12-13T04:19:57;32.8;;;15.9;;
34453;SDS011;60061;52.080;5.312;2022-12-13T04:23:09;35.81;;;16.9;;
34453;SDS011;60061;52.080;5.312;2022-12-13T04:24:46;33.71;;;16.61;;
34453;SDS011;60061;52.080;5.312;2022-12-13T04:26:21;38.31;;;16.7;;
34453;SDS011;60061;52.080;5.312;2022-12-13T04:29:34;38.21;;;17.7;;
34453;SDS011;60061;52.080;5.312;2022-12-13T04:31:10;31.2;;;16.8;;
34453;SDS011;60061;52.080;5.312;2022-12-13T04:32:46;38.9;;;19.2;;
34453;SDS011;60061;52.080;5.312;2022-12-13T04:35:59;41.0;;;21.3;;
34453;SDS011;60061;52.080;5.312;2022-12-13T04:37:35;38.31;;;20.3;;
34453;SDS011;60061;52.080;5.312;2022-12-13T04:39:11;36.71;;;18.5;;
34453;SDS011;60061;52.080;5.312;2022-12-13T04:40:47;36.0;;;18.11;;
34453;SDS011;60061;52.080;5.312;2022-12-13T04:44:00;35.0;;;16.9;;
34453;SDS011;60061;52.080;5.312;2022-12-13T04:45:37;34.4;;;17.41;;
34453;SDS011;60061;52.080;5.312;2022-12-13T04:47:13;37.1;;;19.11;;
34453;SDS011;60061;52.080;5.312;2022-12-13T04:50:25;35.81;;;18.7;;
34453;SDS011;60061;52.080;5.312;2022-12-13T04:52:02;34.31;;;18.11;;
34453;SDS011;60061;52.080;5.312;2022-12-13T04:53:39;34.5;;;17.5;;
34453;SDS011;60061;52.080;5.312;2022-12-13T04:56:51;30.8;;;16.7;;
34453;SDS011;60061;52.080;5.312;2022-12-13T04:58:28;38.4;;;18.41;;
34453;SDS011;60061;52.080;5.312;2022-12-13T05:00:05;31.9;;;17.2;;
34453;SDS011;60061;52.080;5.312;2022-12-13T05:01:44;34.1;;;17.41;;
34453;SDS011;60061;52.080;5.312;2022-12-13T05:04:59;35.1;;;17.8;;
34453;SDS011;60061;52.080;5.312;2022-12-13T05:06:36;37.9;;;18.61;;
34453;SDS011;60061;52.080;5.312;2022-12-13T05:08:14;35.0;;;18.5;;
34453;SDS011;60061;52.080;5.312;2022-12-13T05:11:26;32.1;;;18.11;;
34453;SDS011;60061;52.080;5.312;2022-12-13T05:13:04;36.0;;;18.8;;
34453;SDS011;60061;52.080;5.312;2022-12-13T05:14:41;36.71;;;18.5;;
34453;SDS011;60061;52.080;5.312;2022-12-13T05:17:53;34.0;;;18.0;;
34453;SDS011;60061;52.080;5.312;2022-12-13T05:19:29;33.5;;;17.61;;
34453;SDS011;60061;52.080;5.312;2022-12-13T05:21:06;35.0;;;18.8;;
34453;SDS011;60061;52.080;5.312;2022-12-13T05:22:45;35.31;;;18.2;;
34453;SDS011;60061;52.080;5.312;2022-12-13T05:25:57;33.71;;;17.8;;
34453;SDS011;60061;52.080;5.312;2022-12-13T05:27:36;34.1;;;17.8;;
34453;SDS011;60061;52.080;5.312;2022-12-13T05:29:12;37.6;;;18.61;;
34453;SDS011;60061;52.080;5.312;2022-12-13T05:32:26;37.5;;;18.41;;
34453;SDS011;60061;52.080;5.312;2022-12-13T05:34:02;34.1;;;18.0;;
34453;SDS011;60061;52.080;5.312;2022-12-13T05:35:38;38.4;;;18.41;;
34453;SDS011;60061;52.080;5.312;2022-12-13T05:38:51;37.21;;;19.11;;
34453;SDS011;60061;52.080;5.312;2022-12-13T05:40:29;34.31;;;18.0;;
34453;SDS011;60061;52.080;5.312;2022-12-13T05:42:06;34.1;;;17.91;;
34453;SDS011;60061;52.080;5.312;2022-12-13T05:43:43;35.0;;;18.0;;
34453;SDS011;60061;52.080;5.312;2022-12-13T05:46:57;36.71;;;18.3;;
34453;SDS011;60061;52.080;5.312;2022-12-13T05:48:34;35.1;;;18.61;;
34453;SDS011;60061;52.080;5.312;2022-12-13T05:50:10;40.5;;;21.2;;
34453;SDS011;60061;52.080;5.312;2022-12-13T05:53:25;38.0;;;19.91;;
34453;SDS011;60061;52.080;5.312;2022-12-13T05:55:00;34.0;;;17.91;;
34453;SDS011;60061;52.080;5.312;2022-12-13T05:56:37;35.9;;;18.11;;
34453;SDS011;60061;52.080;5.312;2022-12-13T05:58:15;35.0;;;17.41;;
34453;SDS011;60061;52.080;5.312;2022-12-13T06:01:28;38.1;;;18.61;;
34453;SDS011;60061;52.080;5.312;2022-12-13T06:03:04;34.1;;;18.11;;
34453;SDS011;60061;52.080;5.312;2022-12-13T06:04:40;33.9;;;18.0;;
34453;SDS011;60061;52.080;5.312;2022-12-13T06:09:31;35.4;;;18.3;;
34453;SDS011;60061;52.080;5.312;2022-12-13T06:11:08;36.6;;;18.41;;
34453;SDS011;60061;52.080;5.312;2022-12-13T06:14:20;35.21;;;18.2;;
34453;SDS011;60061;52.080;5.312;2022-12-13T06:15:59;38.71;;;18.7;;
34453;SDS011;60061;52.080;5.312;2022-12-13T06:17:37;37.4;;;19.3;;
34453;SDS011;60061;52.080;5.312;2022-12-13T06:19:12;35.4;;;19.0;;
34453;SDS011;60061;52.080;5.312;2022-12-13T06:22:31;44.5;;;22.0;;
34453;SDS011;60061;52.080;5.312;2022-12-13T06:24:09;45.4;;;22.8;;
34453;SDS011;60061;52.080;5.312;2022-12-13T06:25:45;39.1;;;22.4;;
34453;SDS011;60061;52.080;5.312;2022-12-13T06:28:57;39.71;;;21.2;;
34453;SDS011;60061;52.080;5.312;2022-12-13T06:30:34;43.3;;;24.9;;
34453;SDS011;60061;52.080;5.312;2022-12-13T06:32:11;41.4;;;22.6;;
34453;SDS011;60061;52.080;5.312;2022-12-13T06:33:47;37.21;;;21.0;;
34453;SDS011;60061;52.080;5.312;2022-12-13T06:37:01;39.81;;;20.5;;
34453;SDS011;60061;52.080;5.312;2022-12-13T06:38:40;38.81;;;20.11;;
34453;SDS011;60061;52.080;5.312;2022-12-13T06:40:16;39.31;;;19.61;;
34453;SDS011;60061;52.080;5.312;2022-12-13T06:43:29;38.1;;;19.8;;
34453;SDS011;60061;52.080;5.312;2022-12-13T06:45:06;39.9;;;20.6;;
34453;SDS011;60061;52.080;5.312;2022-12-13T06:46:43;35.4;;;20.5;;
34453;SDS011;60061;52.080;5.312;2022-12-13T06:49:56;38.1;;;19.8;;
34453;SDS011;60061;52.080;5.312;2022-12-13T06:51:32;35.21;;;19.2;;
34453;SDS011;60061;52.080;5.312;2022-12-13T06:53:09;36.21;;;20.7;;
34453;SDS011;60061;52.080;5.312;2022-12-13T06:54:44;39.21;;;22.4;;
34453;SDS011;60061;52.080;5.312;2022-12-13T06:57:57;36.71;;;20.3;;
34453;SDS011;60061;52.080;5.312;2022-12-13T06:59:34;37.31;;;20.7;;
34453;SDS011;60061;52.080;5.312;2022-12-13T07:01:10;37.0;;;19.3;;
34453;SDS011;60061;52.080;5.312;2022-12-13T07:04:27;38.0;;;20.6;;
34453;SDS011;60061;52.080;5.312;2022-12-13T07:06:04;35.31;;;19.5;;
34453;SDS011;60061;52.080;5.312;2022-12-13T07:07:43;37.31;;;20.2;;
34453;SDS011;60061;52.080;5.312;2022-12-13T07:09:20;36.71;;;19.8;;
34453;SDS011;60061;52.080;5.312;2022-12-13T07:12:33;39.1;;;20.8;;
34453;SDS011;60061;52.080;5.312;2022-12-13T07:14:09;36.0;;;18.91;;
34453;SDS011;60061;52.080;5.312;2022-12-13T07:15:46;36.71;;;19.41;;
34453;SDS011;60061;52.080;5.312;2022-12-13T07:18:59;36.9;;;19.61;;
34453;SDS011;60061;52.080;5.312;2022-12-13T07:20:37;39.0;;;19.61;;
34453;SDS011;60061;52.080;5.312;2022-12-13T07:22:14;36.71;;;18.7;;
34453;SDS011;60061;52.080;5.312;2022-12-13T07:25:27;35.21;;;19.11;;
34453;SDS011;60061;52.080;5.312;2022-12-13T07:27:03;40.71;;;22.8;;
34453;SDS011;60061;52.080;5.312;2022-12-13T07:28:39;41.3;;;23.4;;
34453;SDS011;60061;52.080;5.312;2022-12-13T07:30:16;43.9;;;23.4;;
34453;SDS011;60061;52.080;5.312;2022-12-13T07:33:29;38.9;;;21.0;;
34453;SDS011;60061;52.080;5.312;2022-12-13T07:35:06;34.21;;;19.7;;
34453;SDS011;60061;52.080;5.312;2022-12-13T07:36:43;34.1;;;20.11;;
34453;SDS011;60061;52.080;5.312;2022-12-13T07:39:56;42.3;;;22.0;;
34453;SDS011;60061;52.080;5.312;2022-12-13T07:41:34;35.31;;;20.41;;
34453;SDS011;60061;52.080;5.312;2022-12-13T07:43:11;36.31;;;19.7;;
34453;SDS011;60061;52.080;5.312;2022-12-13T07:46:23;36.1;;;19.91;;
34453;SDS011;60061;52.080;5.312;2022-12-13T07:48:02;36.6;;;19.61;;
34453;SDS011;60061;52.080;5.312;2022-12-13T07:49:39;36.31;;;20.2;;
34453;SDS011;60061;52.080;5.312;2022-12-13T07:51:15;37.81;;;20.3;;
34453;SDS011;60061;52.080;5.312;2022-12-13T07:54:28;42.2;;;21.2;;
34453;SDS011;60061;52.080;5.312;2022-12-13T07:56:05;40.1;;;20.2;;
34453;SDS011;60061;52.080;5.312;2022-12-13T07:57:44;34.9;;;18.5;;
34453;SDS011;60061;52.080;5.312;2022-12-13T08:00:57;36.6;;;19.3;;
34453;SDS011;60061;52.080;5.312;2022-12-13T08:02:35;38.6;;;20.41;;
34453;SDS011;60061;52.080;5.312;2022-12-13T08:04:11;36.81;;;19.7;;
34453;SDS011;60061;52.080;5.312;2022-12-13T08:07:24;40.1;;;20.8;;
34453;SDS011;60061;52.080;5.312;2022-12-13T08:09:00;35.6;;;20.6;;
34453;SDS011;60061;52.080;5.312;2022-12-13T08:10:36;37.4;;;19.8;;
34453;SDS011;60061;52.080;5.312;2022-12-13T08:12:13;37.4;;;18.91;;
34453;SDS011;60061;52.080;5.312;2022-12-13T08:15:28;37.21;;;19.61;;
34453;SDS011;60061;52.080;5.312;2022-12-13T08:17:05;40.81;;;19.5;;
34453;SDS011;60061;52.080;5.312;2022-12-13T08:18:43;39.6;;;20.6;;
34453;SDS011;60061;52.080;5.312;2022-12-13T08:21:55;37.1;;;19.7;;
34453;SDS011;60061;52.080;5.312;2022-12-13T08:23:32;36.9;;;19.41;;
34453;SDS011;60061;52.080;5.312;2022-12-13T08:25:10;40.1;;;20.8;;
34453;SDS011;60061;52.080;5.312;2022-12-13T08:26:46;40.0;;;21.3;;
34453;SDS011;60061;52.080;5.312;2022-12-13T08:30:00;39.81;;;20.9;;
34453;SDS011;60061;52.080;5.312;2022-12-13T08:31:36;38.21;;;20.2;;
34453;SDS011;60061;52.080;5.312;2022-12-13T08:33:12;39.0;;;20.9;;
34453;SDS011;60061;52.080;5.312;2022-12-13T08:36:24;38.21;;;20.7;;
34453;SDS011;60061;52.080;5.312;2022-12-13T08:38:01;41.3;;;22.0;;
34453;SDS011;60061;52.080;5.312;2022-12-13T08:39:38;42.8;;;21.6;;
34453;SDS011;60061;52.080;5.312;2022-12-13T08:42:53;40.0;;;20.3;;
34453;SDS011;60061;52.080;5.312;2022-12-13T08:44:29;39.81;;;20.9;;
34453;SDS011;60061;52.080;5.312;2022-12-13T08:46:06;37.6;;;20.0;;
34453;SDS011;60061;52.080;5.312;2022-12-13T08:47:42;35.71;;;20.5;;
34453;SDS011;60061;52.080;5.312;2022-12-13T08:50:58;40.0;;;21.1;;
34453;SDS011;60061;52.080;5.312;2022-12-13T08:52:36;40.6;;;21.5;;
34453;SDS011;60061;52.080;5.312;2022-12-13T08:54:12;38.9;;;21.3;;
34453;SDS011;60061;52.080;5.312;2022-12-13T08:57:24;40.1;;;21.1;;
34453;SDS011;60061;52.080;5.312;2022-12-13T08:59:00;41.2;;;22.4;;
34453;SDS011;60061;52.080;5.312;2022-12-13T09:00:37;43.4;;;24.6;;
34453;SDS011;60061;52.080;5.312;2022-12-13T09:03:50;45.9;;;24.3;;
34453;SDS011;60061;52.080;5.312;2022-12-13T09:05:26;54.4;;;30.0;;
34453;SDS011;60061;52.080;5.312;2022-12-13T09:07:02;56.1;;;31.7;;
34453;SDS011;60061;52.080;5.312;2022-12-13T09:08:39;57.2;;;32.1;;
34453;SDS011;60061;52.080;5.312;2022-12-13T09:11:52;62.6;;;33.6;;
34453;SDS011;60061;52.080;5.312;2022-12-13T09:13:29;62.5;;;34.21;;
34453;SDS011;60061;52.080;5.312;2022-12-13T09:15:08;57.6;;;32.5;;
34453;SDS011;60061;52.080;5.312;2022-12-13T09:18:21;57.6;;;31.6;;
34453;SDS011;60061;52.080;5.312;2022-12-13T09:19:57;54.8;;;30.9;;
34453;SDS011;60061;52.080;5.312;2022-12-13T09:21:33;57.8;;;30.4;;
34453;SDS011;60061;52.080;5.312;2022-12-13T09:24:46;59.1;;;32.71;;
34453;SDS011;60061;52.080;5.312;2022-12-13T09:26:22;53.9;;;31.3;;
34453;SDS011;60061;52.080;5.312;2022-12-13T09:28:00;55.7;;;30.8;;
34453;SDS011;60061;52.080;5.312;2022-12-13T09:29:36;55.6;;;31.5;;
34453;SDS011;60061;52.080;5.312;2022-12-13T09:32:53;51.1;;;28.9;;
34453;SDS011;60061;52.080;5.312;2022-12-13T09:34:31;50.2;;;28.8;;
34453;SDS011;60061;52.080;5.312;2022-12-13T09:36:10;48.5;;;26.9;;
34453;SDS011;60061;52.080;5.312;2022-12-13T09:39:23;48.3;;;26.4;;
34453;SDS011;60061;52.080;5.312;2022-12-13T09:41:04;50.4;;;26.1;;
34453;SDS011;60061;52.080;5.312;2022-12-13T09:42:52;46.3;;;25.4;;
34453;SDS011;60061;52.080;5.312;2022-12-13T09:44:33;48.2;;;25.2;;
34453;SDS011;60061;52.080;5.312;2022-12-13T09:48:02;46.9;;;25.4;;
34453;SDS011;60061;52.080;5.312;2022-12-13T09:49:42;46.5;;;24.7;;
34453;SDS011;60061;52.080;5.312;2022-12-13T09:51:20;46.5;;;24.2;;
34453;SDS011;60061;52.080;5.312;2022-12-13T09:52:57;52.2;;;25.7;;
34453;SDS011;60061;52.080;5.312;2022-12-13T09:56:14;57.7;;;28.6;;
34453;SDS011;60061;52.080;5.312;2022-12-13T09:57:53;59.2;;;30.1;;
34453;SDS011;60061;52.080;5.312;2022-12-13T09:59:31;59.3;;;30.3;;
34453;SDS011;60061;52.080;5.312;2022-12-13T10:01:11;64.5;;;30.2;;
34453;SDS011;60061;52.080;5.312;2022-12-13T10:04:26;62.0;;;31.2;;
34453;SDS011;60061;52.080;5.312;2022-12-13T10:06:13;62.1;;;30.1;;
34453;SDS011;60061;52.080;5.312;2022-12-13T10:07:53;62.1;;;30.5;;
34453;SDS011;60061;52.080;5.312;2022-12-13T10:09:32;56.4;;;27.5;;
34453;SDS011;60061;52.080;5.312;2022-12-13T10:12:49;51.5;;;27.2;;
34453;SDS011;60061;52.080;5.312;2022-12-13T10:14:34;56.7;;;27.3;;
34453;SDS011;60061;52.080;5.312;2022-12-13T10:16:16;50.8;;;26.5;;
34453;SDS011;60061;52.080;5.312;2022-12-13T10:18:11;54.0;;;26.0;;
34453;SDS011;60061;52.080;5.312;2022-12-13T10:19:56;53.9;;;26.3;;
34453;SDS011;60061;52.080;5.312;2022-12-13T10:23:15;50.8;;;26.8;;
34453;SDS011;60061;52.080;5.312;2022-12-13T10:24:52;48.8;;;26.1;;
34453;SDS011;60061;52.080;5.312;2022-12-13T10:26:34;45.6;;;25.1;;
34453;SDS011;60061;52.080;5.312;2022-12-13T10:28:12;44.7;;;23.3;;
34453;SDS011;60061;52.080;5.312;2022-12-13T10:31:41;46.5;;;24.5;;
34453;SDS011;60061;52.080;5.312;2022-12-13T10:33:21;48.3;;;25.7;;
34453;SDS011;60061;52.080;5.312;2022-12-13T10:35:01;50.7;;;25.5;;
34453;SDS011;60061;52.080;5.312;2022-12-13T10:36:55;51.6;;;26.3;;
34453;SDS011;60061;52.080;5.312;2022-12-13T10:38:33;50.7;;;25.4;;
34453;SDS011;60061;52.080;5.312;2022-12-13T10:42:09;48.6;;;26.0;;
34453;SDS011;60061;52.080;5.312;2022-12-13T10:43:52;57.3;;;28.2;;
34453;SDS011;60061;52.080;5.312;2022-12-13T10:45:56;54.2;;;27.8;;
34453;SDS011;60061;52.080;5.312;2022-12-13T10:47:34;52.9;;;27.6;;
34453;SDS011;60061;52.080;5.312;2022-12-13T10:49:14;51.4;;;27.5;;
34453;SDS011;60061;52.080;5.312;2022-12-13T10:52:37;50.0;;;27.5;;
34453;SDS011;60061;52.080;5.312;2022-12-13T10:54:18;50.9;;;27.0;;
34453;SDS011;60061;52.080;5.312;2022-12-13T10:56:08;49.9;;;26.4;;
34453;SDS011;60061;52.080;5.312;2022-12-13T10:57:48;54.7;;;27.4;;
34453;SDS011;60061;52.080;5.312;2022-12-13T11:01:10;54.7;;;27.6;;
34453;SDS011;60061;52.080;5.312;2022-12-13T11:02:58;54.4;;;28.5;;
34453;SDS011;60061;52.080;5.312;2022-12-13T11:04:34;55.2;;;28.6;;
34453;SDS011;60061;52.080;5.312;2022-12-13T11:06:11;50.7;;;26.8;;
34453;SDS011;60061;52.080;5.312;2022-12-13T11:07:49;51.6;;;27.5;;
34453;SDS011;60061;52.080;5.312;2022-12-13T11:11:06;49.8;;;27.3;;
34453;SDS011;60061;52.080;5.312;2022-12-13T11:12:44;54.5;;;26.8;;
34453;SDS011;60061;52.080;5.312;2022-12-13T11:14:22;50.4;;;27.0;;
34453;SDS011;60061;52.080;5.312;2022-12-13T11:17:44;55.3;;;28.1;;
34453;SDS011;60061;52.080;5.312;2022-12-13T11:19:29;51.9;;;27.5;;
34453;SDS011;60061;52.080;5.312;2022-12-13T11:21:13;53.0;;;27.5;;
34453;SDS011;60061;52.080;5.312;2022-12-13T11:23:00;52.4;;;27.4;;
34453;SDS011;60061;52.080;5.312;2022-12-13T11:24:40;50.3;;;27.7;;
34453;SDS011;60061;52.080;5.312;2022-12-13T11:28:00;52.4;;;27.5;;
34453;SDS011;60061;52.080;5.312;2022-12-13T11:29:49;53.9;;;27.3;;
34453;SDS011;60061;52.080;5.312;2022-12-13T11:31:45;55.1;;;26.9;;
34453;SDS011;60061;52.080;5.312;2022-12-13T11:33:32;52.6;;;27.6;;
34453;SDS011;60061;52.080;5.312;2022-12-13T11:37:02;52.9;;;26.8;;
34453;SDS011;60061;52.080;5.312;2022-12-13T11:38:55;51.1;;;27.6;;
34453;SDS011;60061;52.080;5.312;2022-12-13T11:40:50;52.6;;;27.4;;
34453;SDS011;60061;52.080;5.312;2022-12-13T11:42:32;49.1;;;26.5;;
34453;SDS011;60061;52.080;5.312;2022-12-13T11:44:16;55.3;;;27.9;;
34453;SDS011;60061;52.080;5.312;2022-12-13T11:46:01;51.6;;;26.8;;
34453;SDS011;60061;52.080;5.312;2022-12-13T11:47:47;49.2;;;26.2;;
34453;SDS011;60061;52.080;5.312;2022-12-13T11:51:16;46.9;;;25.7;;
34453;SDS011;60061;52.080;5.312;2022-12-13T11:53:04;54.3;;;27.6;;
34453;SDS011;60061;52.080;5.312;2022-12-13T11:54:56;51.5;;;26.9;;
34453;SDS011;60061;52.080;5.312;2022-12-13T11:56:36;52.8;;;27.8;;
34453;SDS011;60061;52.080;5.312;2022-12-13T11:58:18;52.6;;;28.1;;
34453;SDS011;60061;52.080;5.312;2022-12-13T12:01:44;54.0;;;28.3;;
34453;SDS011;60061;52.080;5.312;2022-12-13T12:03:27;54.4;;;29.3;;
34453;SDS011;60061;52.080;5.312;2022-12-13T12:05:16;59.0;;;29.6;;
34453;SDS011;60061;52.080;5.312;2022-12-13T12:07:04;53.0;;;28.1;;
34453;SDS011;60061;52.080;5.312;2022-12-13T12:08:46;49.5;;;28.0;;
34453;SDS011;60061;52.080;5.312;2022-12-13T12:10:35;50.9;;;26.9;;
34453;SDS011;60061;52.080;5.312;2022-12-13T12:14:02;53.4;;;28.0;;
34453;SDS011;60061;52.080;5.312;2022-12-13T12:15:48;51.3;;;26.9;;
34453;SDS011;60061;52.080;5.312;2022-12-13T12:17:41;51.7;;;27.8;;
34453;SDS011;60061;52.080;5.312;2022-12-13T12:19:19;54.2;;;28.5;;
34453;SDS011;60061;52.080;5.312;2022-12-13T12:22:53;45.8;;;26.6;;
34453;SDS011;60061;52.080;5.312;2022-12-13T12:24:47;50.9;;;27.4;;
34453;SDS011;60061;52.080;5.312;2022-12-13T12:26:44;49.4;;;27.5;;
34453;SDS011;60061;52.080;5.312;2022-12-13T12:28:32;49.2;;;27.4;;
34453;SDS011;60061;52.080;5.312;2022-12-13T12:30:35;49.9;;;27.9;;
34453;SDS011;60061;52.080;5.312;2022-12-13T12:32:27;50.5;;;28.5;;
34453;SDS011;60061;52.080;5.312;2022-12-13T12:34:15;52.8;;;26.9;;
34453;SDS011;60061;52.080;5.312;2022-12-13T12:36:08;52.3;;;28.7;;
34453;SDS011;60061;52.080;5.312;2022-12-13T12:38:04;54.9;;;28.3;;
34453;SDS011;60061;52.080;5.312;2022-12-13T12:40:00;52.2;;;29.2;;
34453;SDS011;60061;52.080;5.312;2022-12-13T12:42:14;60.9;;;30.7;;
34453;SDS011;60061;52.080;5.312;2022-12-13T12:44:12;54.9;;;28.9;;
34453;SDS011;60061;52.080;5.312;2022-12-13T12:47:54;61.0;;;30.7;;
34453;SDS011;60061;52.080;5.312;2022-12-13T12:50:17;53.8;;;30.2;;